sensor_id;sensor_type;location;lat;lon;timestamp;pressure;altitude;pressure_sealevel;temperature;humidity
62976;BME280;49071;0.000;0.000;2022-10-31T06:52:23;101375.69;;;19.42;56.36
62976;BME280;49071;0.000;0.000;2022-10-31T06:55:23;101328.06;;;19.20;56.33
62976;BME280;49071;0.000;0.000;2022-10-31T06:58:24;101377.38;;;19.61;55.61
62976;BME280;49071;0.000;0.000;2022-10-31T07:01:24;101377.66;;;19.76;55.49
62976;BME280;49071;0.000;0.000;2022-10-31T07:04:25;101371.34;;;19.85;55.50
62976;BME280;49071;0.000;0.000;2022-10-31T07:07:25;101379.91;;;19.91;55.35
62976;BME280;49071;0.000;0.000;2022-10-31T07:10:26;101383.38;;;19.95;55.24
62976;BME280;49071;0.000;0.000;2022-10-31T07:13:27;101392.78;;;20.01;55.18
62976;BME280;49071;0.000;0.000;2022-10-31T07:16:27;101387.00;;;20.04;54.97
62976;BME280;49071;0.000;0.000;2022-10-31T07:19:28;101386.88;;;20.08;54.88
62976;BME280;49071;0.000;0.000;2022-10-31T07:22:34;101391.56;;;20.11;54.91
62976;BME280;49071;0.000;0.000;2022-10-31T07:25:35;101390.19;;;20.16;54.72
62976;BME280;49071;0.000;0.000;2022-10-31T07:28:35;101395.53;;;20.23;54.56
62976;BME280;49071;0.000;0.000;2022-10-31T07:31:36;101397.41;;;20.26;54.70
62976;BME280;49071;0.000;0.000;2022-10-31T07:34:36;101393.66;;;20.29;54.41
62976;BME280;49071;0.000;0.000;2022-10-31T07:37:36;101399.47;;;20.35;54.49
62976;BME280;49071;0.000;0.000;2022-10-31T07:40:36;101395.28;;;20.39;54.33
62976;BME280;49071;0.000;0.000;2022-10-31T07:43:37;101385.44;;;20.44;54.31
62976;BME280;49071;0.000;0.000;2022-10-31T07:46:37;101391.25;;;20.50;54.55
62976;BME280;49071;0.000;0.000;2022-10-31T07:49:37;101397.31;;;20.48;54.15
62976;BME280;49071;0.000;0.000;2022-10-31T07:52:38;101397.94;;;20.43;54.22
62976;BME280;49071;0.000;0.000;2022-10-31T07:55:38;101411.19;;;20.42;54.43
62976;BME280;49071;0.000;0.000;2022-10-31T07:58:38;101400.91;;;20.49;54.50
62976;BME280;49071;0.000;0.000;2022-10-31T08:01:39;101408.22;;;20.46;54.54
62976;BME280;49071;0.000;0.000;2022-10-31T08:04:39;101406.03;;;20.41;54.57
62976;BME280;49071;0.000;0.000;2022-10-31T08:07:39;101410.53;;;20.38;54.45
62976;BME280;49071;0.000;0.000;2022-10-31T08:10:39;101410.81;;;20.31;54.68
62976;BME280;49071;0.000;0.000;2022-10-31T08:13:40;101409.72;;;20.29;54.83
62976;BME280;49071;0.000;0.000;2022-10-31T08:16:42;101405.50;;;20.24;55.03
62976;BME280;49071;0.000;0.000;2022-10-31T08:19:42;101405.63;;;20.20;54.93
62976;BME280;49071;0.000;0.000;2022-10-31T08:22:43;101411.38;;;20.17;54.85
62976;BME280;49071;0.000;0.000;2022-10-31T08:25:43;101409.81;;;20.16;54.83
62976;BME280;49071;0.000;0.000;2022-10-31T08:28:43;101410.75;;;20.13;54.93
62976;BME280;49071;0.000;0.000;2022-10-31T08:31:43;101414.00;;;20.11;54.92
62976;BME280;49071;0.000;0.000;2022-10-31T08:34:44;101414.13;;;20.08;54.90
62976;BME280;49071;0.000;0.000;2022-10-31T08:37:44;101408.25;;;20.15;54.74
62976;BME280;49071;0.000;0.000;2022-10-31T08:40:47;101411.25;;;20.20;54.60
62976;BME280;49071;0.000;0.000;2022-10-31T08:43:47;101417.03;;;20.26;54.55
62976;BME280;49071;0.000;0.000;2022-10-31T08:46:48;101415.78;;;20.27;54.34
62976;BME280;49071;0.000;0.000;2022-10-31T08:49:48;101420.16;;;20.28;54.34
62976;BME280;49071;0.000;0.000;2022-10-31T08:52:48;101424.69;;;20.25;54.42
62976;BME280;49071;0.000;0.000;2022-10-31T08:55:48;101427.31;;;20.29;54.34
62976;BME280;49071;0.000;0.000;2022-10-31T08:58:49;101424.41;;;20.33;54.51
62976;BME280;49071;0.000;0.000;2022-10-31T09:01:51;101427.53;;;20.35;53.97
62976;BME280;49071;0.000;0.000;2022-10-31T09:04:51;101431.88;;;20.36;54.05
62976;BME280;49071;0.000;0.000;2022-10-31T09:07:54;101432.53;;;20.40;54.05
62976;BME280;49071;0.000;0.000;2022-10-31T09:10:55;101434.56;;;20.39;53.74
62976;BME280;49071;0.000;0.000;2022-10-31T09:13:56;101436.13;;;20.40;53.78
62976;BME280;49071;0.000;0.000;2022-10-31T09:16:56;101435.34;;;20.40;53.95
62976;BME280;49071;0.000;0.000;2022-10-31T09:19:56;101437.66;;;20.41;54.01
62976;BME280;49071;0.000;0.000;2022-10-31T09:22:57;101438.78;;;20.44;53.75
62976;BME280;49071;0.000;0.000;2022-10-31T09:25:59;101439.91;;;20.46;53.96
62976;BME280;49071;0.000;0.000;2022-10-31T09:28:59;101441.44;;;20.48;53.80
62976;BME280;49071;0.000;0.000;2022-10-31T09:32:01;101436.16;;;20.50;53.84
62976;BME280;49071;0.000;0.000;2022-10-31T09:35:02;101437.38;;;20.49;53.77
62976;BME280;49071;0.000;0.000;2022-10-31T09:38:04;101430.06;;;20.51;53.58
62976;BME280;49071;0.000;0.000;2022-10-31T09:44:15;101427.59;;;20.53;53.78
62976;BME280;49071;0.000;0.000;2022-10-31T09:47:31;101429.28;;;20.51;53.84
62976;BME280;49071;0.000;0.000;2022-10-31T09:50:38;101433.97;;;20.54;53.55
62976;BME280;49071;0.000;0.000;2022-10-31T09:56:50;101443.56;;;20.56;53.70
62976;BME280;49071;0.000;0.000;2022-10-31T09:59:50;101445.09;;;20.57;53.80
62976;BME280;49071;0.000;0.000;2022-10-31T10:02:53;101449.94;;;20.57;53.56
62976;BME280;49071;0.000;0.000;2022-10-31T10:08:59;101456.31;;;20.57;53.62
62976;BME280;49071;0.000;0.000;2022-10-31T10:18:05;101458.94;;;20.52;53.57
62976;BME280;49071;0.000;0.000;2022-10-31T10:30:32;101444.78;;;20.55;53.76
62976;BME280;49071;0.000;0.000;2022-10-31T10:33:35;101437.59;;;20.54;53.76
62976;BME280;49071;0.000;0.000;2022-10-31T10:36:38;101439.59;;;20.54;53.84
62976;BME280;49071;0.000;0.000;2022-10-31T10:39:43;101439.28;;;20.52;53.76
62976;BME280;49071;0.000;0.000;2022-10-31T10:42:50;101438.47;;;20.51;53.64
62976;BME280;49071;0.000;0.000;2022-10-31T10:46:26;101442.88;;;20.52;53.84
62976;BME280;49071;0.000;0.000;2022-10-31T10:49:51;101434.13;;;20.50;53.92
62976;BME280;49071;0.000;0.000;2022-10-31T10:53:02;101434.44;;;20.52;53.94
62976;BME280;49071;0.000;0.000;2022-10-31T10:56:20;101437.72;;;20.51;54.39
62976;BME280;49071;0.000;0.000;2022-10-31T10:59:25;101438.81;;;20.53;54.23
62976;BME280;49071;0.000;0.000;2022-10-31T11:02:27;101436.78;;;20.54;54.30
62976;BME280;49071;0.000;0.000;2022-10-31T11:05:33;101441.97;;;20.55;54.53
62976;BME280;49071;0.000;0.000;2022-10-31T11:08:35;101440.75;;;20.56;54.44
62976;BME280;49071;0.000;0.000;2022-10-31T11:11:35;101444.78;;;20.55;54.50
62976;BME280;49071;0.000;0.000;2022-10-31T11:14:57;101431.97;;;20.54;54.63
62976;BME280;49071;0.000;0.000;2022-10-31T11:18:00;101423.56;;;20.54;54.87
62976;BME280;49071;0.000;0.000;2022-10-31T11:21:01;101423.69;;;20.51;54.53
62976;BME280;49071;0.000;0.000;2022-10-31T11:27:13;101419.31;;;20.50;54.77
62976;BME280;49071;0.000;0.000;2022-10-31T11:30:14;101420.09;;;20.50;55.01
62976;BME280;49071;0.000;0.000;2022-10-31T11:33:19;101414.94;;;20.49;55.05
62976;BME280;49071;0.000;0.000;2022-10-31T11:36:21;101415.88;;;20.45;54.82
62976;BME280;49071;0.000;0.000;2022-10-31T11:39:23;101413.22;;;20.42;54.93
62976;BME280;49071;0.000;0.000;2022-10-31T11:42:25;101414.13;;;20.39;55.25
62976;BME280;49071;0.000;0.000;2022-10-31T11:45:31;101420.81;;;20.32;55.37
62976;BME280;49071;0.000;0.000;2022-10-31T11:48:31;101405.69;;;20.30;55.34
62976;BME280;49071;0.000;0.000;2022-10-31T11:51:33;101410.16;;;20.27;55.43
62976;BME280;49071;0.000;0.000;2022-10-31T11:57:50;101420.78;;;20.23;55.40
62976;BME280;49071;0.000;0.000;2022-10-31T12:00:52;101420.44;;;20.21;55.74
62976;BME280;49071;0.000;0.000;2022-10-31T12:04:09;101415.28;;;20.19;55.66
62976;BME280;49071;0.000;0.000;2022-10-31T12:07:10;101413.28;;;20.20;55.68
62976;BME280;49071;0.000;0.000;2022-10-31T12:10:10;101412.03;;;20.21;55.78
62976;BME280;49071;0.000;0.000;2022-10-31T12:13:24;101413.56;;;20.22;55.88
62976;BME280;49071;0.000;0.000;2022-10-31T12:32:20;101407.94;;;20.13;56.05
62976;BME280;49071;0.000;0.000;2022-10-31T12:35:25;101403.56;;;20.12;55.94
62976;BME280;49071;0.000;0.000;2022-10-31T12:41:57;101400.44;;;20.10;56.19
62976;BME280;49071;0.000;0.000;2022-10-31T12:48:13;101395.75;;;20.07;56.26
62976;BME280;49071;0.000;0.000;2022-10-31T12:51:37;101394.97;;;20.06;56.33
62976;BME280;49071;0.000;0.000;2022-10-31T12:58:31;101389.81;;;20.04;56.37
62976;BME280;49071;0.000;0.000;2022-10-31T13:01:34;101382.66;;;20.03;56.45
62976;BME280;49071;0.000;0.000;2022-10-31T13:04:38;101389.50;;;20.02;56.45
62976;BME280;49071;0.000;0.000;2022-10-31T13:08:28;101386.34;;;20.00;56.44
62976;BME280;49071;0.000;0.000;2022-10-31T13:11:09;101385.59;;;20.00;56.34
62976;BME280;49071;0.000;0.000;2022-10-31T13:17:31;101377.66;;;19.98;56.20
62976;BME280;49071;0.000;0.000;2022-10-31T13:20:43;101371.22;;;19.98;56.23
62976;BME280;49071;0.000;0.000;2022-10-31T13:23:45;101370.47;;;19.97;56.33
62976;BME280;49071;0.000;0.000;2022-10-31T13:26:55;101363.31;;;19.96;56.17
62976;BME280;49071;0.000;0.000;2022-10-31T13:30:05;101361.28;;;19.97;56.16
62976;BME280;49071;0.000;0.000;2022-10-31T13:39:22;101361.59;;;19.99;56.21
62976;BME280;49071;0.000;0.000;2022-10-31T13:45:24;101361.00;;;20.04;56.19
62976;BME280;49071;0.000;0.000;2022-10-31T13:51:28;101358.97;;;20.04;56.19
62976;BME280;49071;0.000;0.000;2022-10-31T13:57:40;101347.31;;;20.06;56.35
62976;BME280;49071;0.000;0.000;2022-10-31T14:00:41;101348.06;;;20.07;56.55
62976;BME280;49071;0.000;0.000;2022-10-31T14:03:44;101349.63;;;20.08;56.36
62976;BME280;49071;0.000;0.000;2022-10-31T14:06:51;101342.00;;;20.08;56.51
62976;BME280;49071;0.000;0.000;2022-10-31T14:10:01;101346.03;;;20.07;56.39
62976;BME280;49071;0.000;0.000;2022-10-31T14:13:06;101344.00;;;20.08;56.57
62976;BME280;49071;0.000;0.000;2022-10-31T14:16:24;101346.81;;;20.08;56.72
62976;BME280;49071;0.000;0.000;2022-10-31T14:19:25;101342.00;;;20.08;56.67
62976;BME280;49071;0.000;0.000;2022-10-31T14:22:32;101342.78;;;20.09;56.63
62976;BME280;49071;0.000;0.000;2022-10-31T14:25:34;101337.63;;;20.07;56.58
62976;BME280;49071;0.000;0.000;2022-10-31T14:28:35;101339.06;;;20.12;56.72
62976;BME280;49071;0.000;0.000;2022-10-31T14:31:45;101336.25;;;20.12;56.45
62976;BME280;49071;0.000;0.000;2022-10-31T14:34:57;101334.53;;;20.14;56.76
62976;BME280;49071;0.000;0.000;2022-10-31T14:38:04;101332.66;;;20.11;57.03
62976;BME280;49071;0.000;0.000;2022-10-31T14:53:36;101337.03;;;20.12;56.86
62976;BME280;49071;0.000;0.000;2022-10-31T14:56:46;101335.47;;;20.11;56.78
62976;BME280;49071;0.000;0.000;2022-10-31T14:59:55;101326.63;;;20.13;56.91
62976;BME280;49071;0.000;0.000;2022-10-31T15:06:13;101315.53;;;20.09;57.09
62976;BME280;49071;0.000;0.000;2022-10-31T15:09:24;101314.13;;;20.14;56.87
62976;BME280;49071;0.000;0.000;2022-10-31T15:15:26;101314.75;;;20.09;57.09
62976;BME280;49071;0.000;0.000;2022-10-31T15:18:26;101316.78;;;20.08;56.83
62976;BME280;49071;0.000;0.000;2022-10-31T15:21:28;101322.50;;;20.04;56.79
62976;BME280;49071;0.000;0.000;2022-10-31T15:24:36;101317.38;;;20.03;57.06
62976;BME280;49071;0.000;0.000;2022-10-31T15:27:36;101316.59;;;20.02;56.96
62976;BME280;49071;0.000;0.000;2022-10-31T15:30:48;101316.59;;;20.02;56.96
62976;BME280;49071;0.000;0.000;2022-10-31T15:33:49;101316.59;;;20.02;57.32
62976;BME280;49071;0.000;0.000;2022-10-31T15:36:50;101317.50;;;19.99;57.14
62976;BME280;49071;0.000;0.000;2022-10-31T15:39:51;101313.16;;;19.98;56.96
62976;BME280;49071;0.000;0.000;2022-10-31T15:42:53;101313.59;;;19.97;57.17
62976;BME280;49071;0.000;0.000;2022-10-31T15:45:55;101308.00;;;19.97;56.89
62976;BME280;49071;0.000;0.000;2022-10-31T15:48:55;101320.31;;;19.99;57.10
62976;BME280;49071;0.000;0.000;2022-10-31T15:51:55;101317.50;;;19.99;57.22
62976;BME280;49071;0.000;0.000;2022-10-31T15:58:12;101319.06;;;20.00;57.21
62976;BME280;49071;0.000;0.000;2022-10-31T16:04:27;101315.97;;;20.08;57.19
62976;BME280;49071;0.000;0.000;2022-10-31T16:07:30;101316.44;;;20.06;57.17
62976;BME280;49071;0.000;0.000;2022-10-31T16:10:32;101321.91;;;20.10;57.31
62976;BME280;49071;0.000;0.000;2022-10-31T16:13:33;101318.19;;;20.13;57.17
62976;BME280;49071;0.000;0.000;2022-10-31T16:16:39;101319.25;;;20.06;57.05
62976;BME280;49071;0.000;0.000;2022-10-31T16:19:47;101315.34;;;20.03;57.25
62976;BME280;49071;0.000;0.000;2022-10-31T16:22:49;101317.84;;;20.01;57.16
62976;BME280;49071;0.000;0.000;2022-10-31T16:25:50;101326.28;;;20.11;57.44
62976;BME280;49071;0.000;0.000;2022-10-31T16:28:52;101319.88;;;20.10;57.39
62976;BME280;49071;0.000;0.000;2022-10-31T16:31:53;101314.75;;;20.09;57.32
62976;BME280;49071;0.000;0.000;2022-10-31T16:38:09;101322.56;;;20.14;57.13
62976;BME280;49071;0.000;0.000;2022-10-31T16:41:09;101324.38;;;20.08;57.19
62976;BME280;49071;0.000;0.000;2022-10-31T16:44:14;101313.16;;;20.08;57.38
62976;BME280;49071;0.000;0.000;2022-10-31T16:47:17;101322.69;;;20.10;57.30
62976;BME280;49071;0.000;0.000;2022-10-31T16:50:19;101313.81;;;20.12;57.19
62976;BME280;49071;0.000;0.000;2022-10-31T16:53:20;101311.47;;;20.10;57.41
62976;BME280;49071;0.000;0.000;2022-10-31T16:56:23;101316.63;;;20.12;57.41
62976;BME280;49071;0.000;0.000;2022-10-31T16:59:26;101312.72;;;20.09;57.10
62976;BME280;49071;0.000;0.000;2022-10-31T17:02:26;101312.38;;;20.07;57.02
62976;BME280;49071;0.000;0.000;2022-10-31T17:05:26;101313.78;;;20.02;57.10
62976;BME280;49071;0.000;0.000;2022-10-31T17:08:29;101315.81;;;20.02;57.28
62976;BME280;49071;0.000;0.000;2022-10-31T17:11:30;101313.44;;;20.00;57.23
62976;BME280;49071;0.000;0.000;2022-10-31T17:14:30;101316.72;;;19.99;57.14
62976;BME280;49071;0.000;0.000;2022-10-31T17:17:30;101312.84;;;19.96;57.31
62976;BME280;49071;0.000;0.000;2022-10-31T17:20:30;101314.59;;;20.03;57.27
62976;BME280;49071;0.000;0.000;2022-10-31T17:23:31;101318.00;;;20.07;57.19
62976;BME280;49071;0.000;0.000;2022-10-31T17:26:32;101316.28;;;20.10;57.38
62976;BME280;49071;0.000;0.000;2022-10-31T17:29:32;101315.41;;;20.13;57.58
62976;BME280;49071;0.000;0.000;2022-10-31T17:32:32;101309.78;;;20.13;57.34
62976;BME280;49071;0.000;0.000;2022-10-31T17:35:33;101313.50;;;20.10;57.56
62976;BME280;49071;0.000;0.000;2022-10-31T17:38:33;101310.56;;;20.13;57.59
62976;BME280;49071;0.000;0.000;2022-10-31T17:41:33;101308.22;;;20.12;57.32
62976;BME280;49071;0.000;0.000;2022-10-31T17:44:33;101297.75;;;20.12;57.18
62976;BME280;49071;0.000;0.000;2022-10-31T17:47:34;101304.47;;;20.06;57.10
62976;BME280;49071;0.000;0.000;2022-10-31T17:50:34;101298.53;;;20.03;57.41
62976;BME280;49071;0.000;0.000;2022-10-31T17:53:35;101295.56;;;20.07;57.52
62976;BME280;49071;0.000;0.000;2022-10-31T17:56:35;101297.59;;;20.07;57.29
62976;BME280;49071;0.000;0.000;2022-10-31T17:59:35;101298.84;;;20.06;57.34
62976;BME280;49071;0.000;0.000;2022-10-31T18:02:35;101289.97;;;20.07;57.49
62976;BME280;49071;0.000;0.000;2022-10-31T18:05:36;101295.44;;;20.11;57.39
62976;BME280;49071;0.000;0.000;2022-10-31T18:08:37;101289.50;;;20.09;57.50
62976;BME280;49071;0.000;0.000;2022-10-31T18:11:38;101290.72;;;20.08;57.28
62976;BME280;49071;0.000;0.000;2022-10-31T18:14:38;101293.53;;;20.08;57.31
62976;BME280;49071;0.000;0.000;2022-10-31T18:17:39;101292.31;;;20.09;57.51
62976;BME280;49071;0.000;0.000;2022-10-31T18:20:39;101283.56;;;20.07;57.33
62976;BME280;49071;0.000;0.000;2022-10-31T18:23:39;101288.41;;;20.06;57.17
62976;BME280;49071;0.000;0.000;2022-10-31T18:26:40;101287.16;;;20.07;57.36
62976;BME280;49071;0.000;0.000;2022-10-31T18:29:40;101287.34;;;20.13;57.35
62976;BME280;49071;0.000;0.000;2022-10-31T18:32:40;101276.75;;;20.17;57.50
62976;BME280;49071;0.000;0.000;2022-10-31T18:35:40;101275.19;;;20.16;57.58
62976;BME280;49071;0.000;0.000;2022-10-31T18:38:41;101270.34;;;20.16;57.51
62976;BME280;49071;0.000;0.000;2022-10-31T18:41:43;101267.38;;;20.11;57.07
62976;BME280;49071;0.000;0.000;2022-10-31T18:44:44;101268.81;;;20.15;57.40
62976;BME280;49071;0.000;0.000;2022-10-31T18:47:44;101279.38;;;20.11;56.98
62976;BME280;49071;0.000;0.000;2022-10-31T18:50:45;101265.69;;;20.13;56.93
62976;BME280;49071;0.000;0.000;2022-10-31T18:53:50;101265.19;;;20.06;57.54
62976;BME280;49071;0.000;0.000;2022-10-31T18:56:50;101260.22;;;20.10;57.13
62976;BME280;49071;0.000;0.000;2022-10-31T18:59:50;101260.97;;;20.10;57.39
62976;BME280;49071;0.000;0.000;2022-10-31T19:02:50;101258.66;;;20.09;57.28
62976;BME280;49071;0.000;0.000;2022-10-31T19:05:53;101248.66;;;20.08;57.28
62976;BME280;49071;0.000;0.000;2022-10-31T19:08:56;101256.19;;;20.11;57.44
62976;BME280;49071;0.000;0.000;2022-10-31T19:11:56;101244.78;;;20.14;57.29
62976;BME280;49071;0.000;0.000;2022-10-31T19:14:56;101244.34;;;20.16;57.13
62976;BME280;49071;0.000;0.000;2022-10-31T19:17:56;101238.53;;;20.10;57.43
62976;BME280;49071;0.000;0.000;2022-10-31T19:20:57;101241.84;;;20.09;57.02
62976;BME280;49071;0.000;0.000;2022-10-31T19:23:57;101241.19;;;20.04;57.25
62976;BME280;49071;0.000;0.000;2022-10-31T19:26:58;101240.53;;;20.00;57.03
62976;BME280;49071;0.000;0.000;2022-10-31T19:29:59;101245.09;;;20.07;57.45
62976;BME280;49071;0.000;0.000;2022-10-31T19:33:00;101246.03;;;20.04;57.24
62976;BME280;49071;0.000;0.000;2022-10-31T19:36:01;101236.34;;;20.05;57.32
62976;BME280;49071;0.000;0.000;2022-10-31T19:39:02;101237.00;;;20.09;57.48
62976;BME280;49071;0.000;0.000;2022-10-31T19:42:02;101234.66;;;20.08;57.17
62976;BME280;49071;0.000;0.000;2022-10-31T19:45:02;101234.97;;;20.10;57.28
62976;BME280;49071;0.000;0.000;2022-10-31T19:48:03;101239.03;;;20.09;57.37
62976;BME280;49071;0.000;0.000;2022-10-31T19:51:05;101238.53;;;20.10;57.39
62976;BME280;49071;0.000;0.000;2022-10-31T19:54:05;101233.09;;;20.07;56.90
62976;BME280;49071;0.000;0.000;2022-10-31T19:57:05;101225.13;;;20.05;57.11
62976;BME280;49071;0.000;0.000;2022-10-31T20:00:06;101227.16;;;20.04;57.42
62976;BME280;49071;0.000;0.000;2022-10-31T20:03:07;101227.03;;;20.08;57.24
62976;BME280;49071;0.000;0.000;2022-10-31T20:06:27;101212.06;;;20.11;57.26
62976;BME280;49071;0.000;0.000;2022-10-31T20:09:28;101223.94;;;20.15;57.08
62976;BME280;49071;0.000;0.000;2022-10-31T20:12:28;101223.44;;;20.17;57.04
62976;BME280;49071;0.000;0.000;2022-10-31T20:15:28;101231.53;;;20.15;57.15
62976;BME280;49071;0.000;0.000;2022-10-31T20:18:29;101224.06;;;20.12;56.81
62976;BME280;49071;0.000;0.000;2022-10-31T20:21:30;101227.19;;;20.14;57.27
62976;BME280;49071;0.000;0.000;2022-10-31T20:24:31;101225.66;;;20.13;57.35
62976;BME280;49071;0.000;0.000;2022-10-31T20:27:32;101223.75;;;20.10;57.10
62976;BME280;49071;0.000;0.000;2022-10-31T20:30:34;101214.56;;;20.09;57.07
62976;BME280;49071;0.000;0.000;2022-10-31T20:33:36;101218.63;;;20.08;56.92
62976;BME280;49071;0.000;0.000;2022-10-31T20:36:36;101214.56;;;20.09;57.37
62976;BME280;49071;0.000;0.000;2022-10-31T20:39:36;101214.09;;;20.11;56.95
62976;BME280;49071;0.000;0.000;2022-10-31T20:42:37;101210.97;;;20.09;56.81
62976;BME280;49071;0.000;0.000;2022-10-31T20:45:37;101212.06;;;20.11;57.07
62976;BME280;49071;0.000;0.000;2022-10-31T20:48:37;101209.88;;;20.06;56.85
